Stoutland, Missouri
Current Conditions -  °F | °C
As of 9:15 PM on Friday 21 Nov 2014 (Local Time) from KH21 Reporting Station
Overcast Overcast  
Wind Chill: 39°   Ceiling: 1100
Heat Index: 45°   Visibility: 10mi
Dew Point: 41°   Wind: 12mph
Humidity: 87%   Direction: 150°SSE
Pressure: 30.17"   Gusts: NA
Location:  37.81°N, 92.51°W
Report Text: KH21 220315Z AUTO 15010KT 10SM OVC011 07/05 A3017 RMK AO2
Loading
Personal Weather Stations






























Interactive Weather Map New forecast layout! Learn more

10-Day Weather Forecast

Advertisements
Track Severe Weather on mobile